Terminal Aerodrome Forecast
Issued by NWS

Home | Current Version | Previous Version | Graphics & Text | Print | Product List | Glossary On
Versions: 1 2 3 4 5 6 7 8 9 10 11 12
352
FTUS42 KMHX 212346
TAFOAJ
TAF
KOAJ 212346Z 2200/2224 09004KT P6SM VCSH OVC050
     FM220400 VRB03KT P6SM -SHRA OVC040
     FM220800 00000KT P6SM -SHRA OVC015
     FM221000 00000KT 3SM BR SCT007 OVC010
     FM221300 34005KT P6SM BKN010
     FM221500 34007KT P6SM FEW015
      AMD LTD TO CLD VIS AND WIND=

USA.gov is the U.S. government's official web portal to all federal, state and local government web resources and services.